IBE14N FMMI-FSIA
Flight info
| Callsign | IBE14N |
|---|---|
| Flight time | 2h 30m |
| Altitude | 37000 |
| Route | SEMEM1E GATLA UL441 MIROV/N0447F380 UL441 NORSI/N0445F370 DCT IMPOX IMPOX1R |
| Aircraft | A320/M-SDE3FGHIRWY/LB1 |
Departure
| Time | 2026-05-04 10:25 |
|---|---|
| Airport | Ivato International Airport (FMMI) |
Arrival
| Time | 2026-05-04 12:55 |
|---|---|
| Airport | Seychelles International Airport (FSIA) |
| Time | Latitude | Longitude | Altitude | Speed | Heading |
|---|---|---|---|---|---|
| 2026-05-04 10:16 | -18.79853 | 47.47537 | 4174 ft | 0 kts | 272° |
| 2026-05-04 10:22 | -18.79834 | 47.47482 | 4175 ft | 19 kts | 301° |
| 2026-05-04 10:22 | -18.79785 | 47.47358 | 4177 ft | 20 kts | 281° |
| 2026-05-04 10:22 | -18.79756 | 47.47183 | 4184 ft | 23 kts | 280° |
| 2026-05-04 10:23 | -18.79683 | 47.47134 | 4185 ft | 19 kts | 9° |
| 2026-05-04 10:23 | -18.79589 | 47.47190 | 4184 ft | 9 kts | 96° |
| 2026-05-04 10:25 | -18.80588 | 47.53859 | 6601 ft | 175 kts | 99° |
| 2026-05-04 10:25 | -18.80748 | 47.55187 | 6939 ft | 191 kts | 90° |
| 2026-05-04 10:25 | -18.80221 | 47.56496 | 7337 ft | 208 kts | 45° |
| 2026-05-04 10:25 | -18.78931 | 47.57291 | 7696 ft | 223 kts | 27° |
| 2026-05-04 10:26 | -18.77450 | 47.57959 | 7999 ft | 239 kts | 25° |
| 2026-05-04 10:26 | -18.75860 | 47.58644 | 8328 ft | 254 kts | 24° |
| 2026-05-04 10:26 | -18.74168 | 47.59384 | 8665 ft | 271 kts | 24° |
| 2026-05-04 10:26 | -18.72423 | 47.60165 | 9187 ft | 279 kts | 25° |
| 2026-05-04 10:27 | -18.70625 | 47.60988 | 9814 ft | 284 kts | 25° |
| 2026-05-04 10:27 | -18.68804 | 47.61833 | 10407 ft | 288 kts | 25° |
| 2026-05-04 10:27 | -18.66958 | 47.62699 | 10992 ft | 291 kts | 26° |
| 2026-05-04 10:27 | -18.65105 | 47.63574 | 11601 ft | 293 kts | 26° |
| 2026-05-04 10:28 | -18.63239 | 47.64460 | 12180 ft | 296 kts | 26° |
| 2026-05-04 10:28 | -18.61316 | 47.65376 | 12543 ft | 312 kts | 26° |
| 2026-05-04 10:28 | -18.59287 | 47.66344 | 12861 ft | 328 kts | 26° |
| 2026-05-04 10:28 | -18.57156 | 47.67358 | 13161 ft | 344 kts | 26° |
| 2026-05-04 10:29 | -18.54919 | 47.68419 | 13430 ft | 360 kts | 26° |
| 2026-05-04 10:29 | -18.52600 | 47.69519 | 13896 ft | 369 kts | 26° |
| 2026-05-04 10:29 | -18.50252 | 47.70630 | 14439 ft | 371 kts | 26° |
| 2026-05-04 10:29 | -18.47888 | 47.71747 | 15028 ft | 374 kts | 26° |
| 2026-05-04 10:30 | -18.45512 | 47.72885 | 15605 ft | 375 kts | 28° |
| 2026-05-04 10:30 | -18.43237 | 47.74229 | 16193 ft | 376 kts | 31° |
| 2026-05-04 10:30 | -18.40957 | 47.75601 | 16786 ft | 378 kts | 31° |
| 2026-05-04 10:30 | -18.38667 | 47.76975 | 17371 ft | 380 kts | 31° |
| 2026-05-04 10:31 | -18.36370 | 47.78356 | 17960 ft | 381 kts | 31° |
| 2026-05-04 10:31 | -18.34056 | 47.79746 | 18523 ft | 383 kts | 31° |
| 2026-05-04 10:32 | -18.19930 | 47.88228 | 21401 ft | 399 kts | 31° |
| 2026-05-04 10:33 | -18.17508 | 47.89678 | 21882 ft | 402 kts | 31° |
| 2026-05-04 10:33 | -18.15068 | 47.91138 | 22356 ft | 405 kts | 31° |
| 2026-05-04 10:33 | -18.12612 | 47.92607 | 22833 ft | 408 kts | 31° |
| 2026-05-04 10:33 | -18.10140 | 47.94087 | 23295 ft | 411 kts | 31° |
| 2026-05-04 10:34 | -18.07646 | 47.95584 | 23737 ft | 414 kts | 31° |
| 2026-05-04 10:34 | -18.05136 | 47.97090 | 24110 ft | 417 kts | 30° |
| 2026-05-04 10:34 | -18.02610 | 47.98603 | 24474 ft | 420 kts | 30° |
| 2026-05-04 10:34 | -18.00058 | 48.00125 | 24832 ft | 423 kts | 30° |
| 2026-05-04 10:35 | -17.97491 | 48.01656 | 25177 ft | 426 kts | 30° |
| 2026-05-04 10:35 | -17.94905 | 48.03202 | 25513 ft | 429 kts | 30° |
| 2026-05-04 10:35 | -17.92303 | 48.04758 | 25848 ft | 432 kts | 30° |
| 2026-05-04 10:35 | -17.89682 | 48.06327 | 26180 ft | 435 kts | 30° |
| 2026-05-04 10:36 | -17.87045 | 48.07902 | 26507 ft | 438 kts | 29° |
| 2026-05-04 10:36 | -17.84390 | 48.09487 | 26834 ft | 440 kts | 29° |
| 2026-05-04 10:36 | -17.81717 | 48.11081 | 27150 ft | 443 kts | 29° |
| 2026-05-04 10:36 | -17.79028 | 48.12684 | 27469 ft | 446 kts | 29° |
| 2026-05-04 10:37 | -17.76322 | 48.14294 | 27777 ft | 449 kts | 28° |
| 2026-05-04 10:37 | -17.73599 | 48.15914 | 28071 ft | 451 kts | 28° |
| 2026-05-04 10:37 | -17.70862 | 48.17542 | 28378 ft | 454 kts | 28° |
| 2026-05-04 10:37 | -17.68109 | 48.19179 | 28676 ft | 456 kts | 28° |
| 2026-05-04 10:39 | -17.51324 | 48.29181 | 30347 ft | 469 kts | 28° |
| 2026-05-04 10:39 | -17.48479 | 48.30868 | 30570 ft | 471 kts | 28° |
| 2026-05-04 10:39 | -17.45625 | 48.32562 | 30796 ft | 472 kts | 28° |
| 2026-05-04 10:40 | -17.42763 | 48.34263 | 31014 ft | 474 kts | 28° |
| 2026-05-04 10:40 | -17.39892 | 48.35968 | 31229 ft | 476 kts | 28° |
| 2026-05-04 10:40 | -17.37009 | 48.37679 | 31422 ft | 477 kts | 28° |
| 2026-05-04 10:40 | -17.34118 | 48.39393 | 31685 ft | 477 kts | 28° |
| 2026-05-04 10:41 | -17.31230 | 48.41104 | 31991 ft | 477 kts | 28° |
| 2026-05-04 10:41 | -17.28346 | 48.42812 | 32283 ft | 476 kts | 28° |
| 2026-05-04 10:41 | -17.25500 | 48.44497 | 32563 ft | 476 kts | 28° |
| 2026-05-04 10:41 | -17.22621 | 48.46201 | 32845 ft | 476 kts | 28° |
| 2026-05-04 10:42 | -17.19737 | 48.47910 | 33139 ft | 476 kts | 28° |
| 2026-05-04 10:42 | -17.16861 | 48.49619 | 33443 ft | 475 kts | 28° |
| 2026-05-04 10:42 | -17.13987 | 48.51327 | 33741 ft | 475 kts | 28° |
| 2026-05-04 10:42 | -17.11112 | 48.53027 | 34033 ft | 475 kts | 28° |
| 2026-05-04 10:43 | -17.08235 | 48.54723 | 34299 ft | 474 kts | 28° |
| 2026-05-04 10:44 | -16.88237 | 48.66522 | 36062 ft | 469 kts | 27° |
| 2026-05-04 10:45 | -16.85399 | 48.68194 | 36293 ft | 468 kts | 27° |
| 2026-05-04 10:45 | -16.82570 | 48.69857 | 36518 ft | 467 kts | 27° |
| 2026-05-04 10:45 | -16.79741 | 48.71517 | 36733 ft | 466 kts | 27° |
| 2026-05-04 10:45 | -16.76918 | 48.73179 | 36946 ft | 466 kts | 27° |
| 2026-05-04 10:46 | -16.74098 | 48.74842 | 37068 ft | 464 kts | 27° |
| 2026-05-04 10:46 | -16.68496 | 48.78148 | 37086 ft | 462 kts | 27° |
| 2026-05-04 10:47 | -16.62902 | 48.81437 | 37087 ft | 462 kts | 27° |
| 2026-05-04 10:47 | -16.57342 | 48.84701 | 37084 ft | 461 kts | 27° |
| 2026-05-04 10:49 | -16.34983 | 48.97814 | 37087 ft | 461 kts | 27° |
| 2026-05-04 10:50 | -16.29400 | 49.01086 | 37079 ft | 461 kts | 27° |
| 2026-05-04 10:52 | -16.07047 | 49.14145 | 37065 ft | 460 kts | 27° |
| 2026-05-04 10:52 | -16.01458 | 49.17403 | 37066 ft | 460 kts | 27° |
| 2026-05-04 10:54 | -15.79244 | 49.30572 | 37073 ft | 460 kts | 27° |
| 2026-05-04 10:56 | -15.57011 | 49.43691 | 37075 ft | 460 kts | 27° |
| 2026-05-04 10:57 | -15.51447 | 49.46964 | 37074 ft | 460 kts | 27° |
| 2026-05-04 10:57 | -15.45893 | 49.50231 | 37071 ft | 459 kts | 27° |
| 2026-05-04 10:58 | -15.40335 | 49.53502 | 37066 ft | 459 kts | 27° |
| 2026-05-04 10:58 | -15.34819 | 49.56753 | 37064 ft | 459 kts | 27° |
| 2026-05-04 10:59 | -15.29267 | 49.60018 | 37059 ft | 459 kts | 27° |
| 2026-05-04 10:59 | -15.23721 | 49.63280 | 37060 ft | 459 kts | 27° |
| 2026-05-04 11:00 | -15.18170 | 49.66548 | 37062 ft | 459 kts | 27° |
| 2026-05-04 11:02 | -14.95959 | 49.79525 | 37057 ft | 458 kts | 26° |
| 2026-05-04 11:05 | -14.54010 | 50.03069 | 37035 ft | 457 kts | 26° |
| 2026-05-04 11:06 | -14.48455 | 50.06184 | 37030 ft | 457 kts | 26° |
| 2026-05-04 11:06 | -14.42865 | 50.09320 | 37021 ft | 457 kts | 26° |
| 2026-05-04 11:10 | -14.04775 | 50.31054 | 37021 ft | 459 kts | 27° |
| 2026-05-04 11:12 | -13.82490 | 50.43868 | 37008 ft | 459 kts | 27° |
| 2026-05-04 11:12 | -13.76919 | 50.47069 | 37005 ft | 459 kts | 27° |
| 2026-05-04 11:13 | -13.71351 | 50.50269 | 37006 ft | 458 kts | 27° |
| 2026-05-04 11:13 | -13.65778 | 50.53472 | 37007 ft | 458 kts | 27° |
| 2026-05-04 11:14 | -13.60213 | 50.56669 | 37007 ft | 458 kts | 27° |
| 2026-05-04 11:16 | -13.37989 | 50.69400 | 37002 ft | 457 kts | 27° |
| 2026-05-04 11:16 | -13.32435 | 50.72581 | 37000 ft | 456 kts | 27° |
| 2026-05-04 11:17 | -13.26893 | 50.75748 | 36992 ft | 456 kts | 27° |
| 2026-05-04 11:19 | -13.04719 | 50.88408 | 36988 ft | 456 kts | 27° |
| 2026-05-04 11:19 | -12.99180 | 50.91568 | 36992 ft | 455 kts | 27° |
| 2026-05-04 11:20 | -12.93643 | 50.94713 | 36991 ft | 455 kts | 27° |
| 2026-05-04 11:20 | -12.88115 | 50.97863 | 36988 ft | 454 kts | 27° |
| 2026-05-04 11:22 | -12.66066 | 51.10405 | 36980 ft | 454 kts | 28° |
| 2026-05-04 11:23 | -12.60551 | 51.13535 | 36975 ft | 453 kts | 28° |
| 2026-05-04 11:25 | -12.41278 | 51.24484 | 36975 ft | 452 kts | 28° |
| 2026-05-04 11:25 | -12.35780 | 51.27598 | 36968 ft | 452 kts | 28° |
| 2026-05-04 11:27 | -12.11098 | 51.41582 | 36969 ft | 450 kts | 28° |
| 2026-05-04 11:28 | -12.05657 | 51.44661 | 36973 ft | 450 kts | 28° |
| 2026-05-04 11:28 | -12.00188 | 51.47749 | 36972 ft | 449 kts | 28° |
| 2026-05-04 11:29 | -11.94727 | 51.50828 | 36972 ft | 448 kts | 28° |
| 2026-05-04 11:29 | -11.89280 | 51.53912 | 36974 ft | 447 kts | 28° |
| 2026-05-04 11:33 | -11.51397 | 51.75300 | 36966 ft | 442 kts | 29° |
| 2026-05-04 11:33 | -11.46026 | 51.78334 | 36961 ft | 442 kts | 29° |
| 2026-05-04 11:34 | -11.40646 | 51.81368 | 36958 ft | 442 kts | 29° |
| 2026-05-04 11:34 | -11.35269 | 51.84391 | 36954 ft | 441 kts | 29° |
| 2026-05-04 11:35 | -11.29904 | 51.87412 | 36956 ft | 440 kts | 29° |
| 2026-05-04 11:35 | -11.24580 | 51.90409 | 36946 ft | 440 kts | 29° |
| 2026-05-04 11:36 | -11.19221 | 51.93420 | 36946 ft | 440 kts | 29° |
| 2026-05-04 11:36 | -11.13867 | 51.96431 | 36946 ft | 439 kts | 29° |
| 2026-05-04 11:37 | -11.08518 | 51.99439 | 36947 ft | 439 kts | 29° |
| 2026-05-04 11:37 | -11.03188 | 52.02449 | 36943 ft | 438 kts | 29° |
| 2026-05-04 11:38 | -10.97862 | 52.05452 | 36942 ft | 437 kts | 29° |
| 2026-05-04 11:38 | -10.92536 | 52.08444 | 36946 ft | 437 kts | 29° |
| 2026-05-04 11:39 | -10.87219 | 52.11421 | 36938 ft | 437 kts | 29° |
| 2026-05-04 11:41 | -10.68544 | 52.21891 | 36933 ft | 438 kts | 29° |
| 2026-05-04 11:41 | -10.63239 | 52.24866 | 36928 ft | 438 kts | 30° |
| 2026-05-04 11:42 | -10.57910 | 52.27854 | 36920 ft | 438 kts | 30° |
| 2026-05-04 11:42 | -10.52578 | 52.30840 | 36921 ft | 437 kts | 30° |
| 2026-05-04 11:43 | -10.47252 | 52.33823 | 36921 ft | 437 kts | 30° |
| 2026-05-04 11:43 | -10.41929 | 52.36802 | 36928 ft | 437 kts | 30° |
| 2026-05-04 11:44 | -10.36617 | 52.39783 | 36934 ft | 435 kts | 30° |
| 2026-05-04 11:44 | -10.31307 | 52.42750 | 36929 ft | 435 kts | 30° |
| 2026-05-04 11:45 | -10.25995 | 52.45708 | 36927 ft | 436 kts | 30° |
| 2026-05-04 11:45 | -10.20672 | 52.48676 | 36927 ft | 437 kts | 30° |
| 2026-05-04 11:46 | -10.15347 | 52.51652 | 36929 ft | 437 kts | 30° |
| 2026-05-04 11:46 | -10.10018 | 52.54632 | 36925 ft | 438 kts | 30° |
| 2026-05-04 11:47 | -10.04678 | 52.57611 | 36926 ft | 438 kts | 30° |
| 2026-05-04 11:47 | -9.99331 | 52.60598 | 36922 ft | 438 kts | 30° |
| 2026-05-04 11:48 | -9.93992 | 52.63577 | 36914 ft | 438 kts | 30° |
| 2026-05-04 11:48 | -9.88655 | 52.66551 | 36920 ft | 437 kts | 30° |
| 2026-05-04 11:49 | -9.83359 | 52.69507 | 36914 ft | 438 kts | 30° |
| 2026-05-04 11:49 | -9.78025 | 52.72480 | 36916 ft | 437 kts | 30° |
| 2026-05-04 11:50 | -9.72691 | 52.75447 | 36918 ft | 437 kts | 30° |
| 2026-05-04 11:50 | -9.67373 | 52.78410 | 36916 ft | 436 kts | 30° |
| 2026-05-04 11:51 | -9.62051 | 52.81375 | 36919 ft | 437 kts | 30° |
| 2026-05-04 11:51 | -9.56725 | 52.84341 | 36915 ft | 437 kts | 30° |
| 2026-05-04 11:52 | -9.51391 | 52.87312 | 36910 ft | 438 kts | 30° |
| 2026-05-04 11:52 | -9.46047 | 52.90282 | 36912 ft | 438 kts | 30° |
| 2026-05-04 11:53 | -9.40692 | 52.93248 | 36908 ft | 439 kts | 30° |
| 2026-05-04 11:53 | -9.35337 | 52.96228 | 36911 ft | 439 kts | 30° |
| 2026-05-04 11:55 | -9.13919 | 53.08122 | 36910 ft | 440 kts | 30° |
| 2026-05-04 11:56 | -9.08553 | 53.11110 | 36909 ft | 440 kts | 30° |
| 2026-05-04 11:56 | -9.03190 | 53.14091 | 36902 ft | 440 kts | 30° |
| 2026-05-04 11:57 | -8.97824 | 53.17064 | 36905 ft | 440 kts | 30° |
| 2026-05-04 11:57 | -8.92448 | 53.20029 | 36898 ft | 440 kts | 31° |
| 2026-05-04 11:58 | -8.87078 | 53.23009 | 36898 ft | 441 kts | 30° |
| 2026-05-04 11:58 | -8.81701 | 53.25992 | 36898 ft | 441 kts | 31° |
| 2026-05-04 11:59 | -8.76317 | 53.28963 | 36896 ft | 441 kts | 31° |
| 2026-05-04 11:59 | -8.70939 | 53.31935 | 36901 ft | 440 kts | 31° |
| 2026-05-04 12:00 | -8.65614 | 53.34885 | 36902 ft | 439 kts | 30° |
| 2026-05-04 12:00 | -8.60257 | 53.37852 | 36897 ft | 439 kts | 30° |
| 2026-05-04 12:01 | -8.54906 | 53.40815 | 36900 ft | 438 kts | 30° |
| 2026-05-04 12:02 | -8.37152 | 53.50625 | 36900 ft | 435 kts | 30° |
| 2026-05-04 12:03 | -8.31842 | 53.53551 | 36900 ft | 434 kts | 30° |
| 2026-05-04 12:03 | -8.26547 | 53.56473 | 36897 ft | 433 kts | 30° |
| 2026-05-04 12:04 | -8.21269 | 53.59396 | 36898 ft | 432 kts | 30° |
| 2026-05-04 12:04 | -8.15990 | 53.62309 | 36899 ft | 432 kts | 30° |
| 2026-05-04 12:05 | -8.10719 | 53.65211 | 36893 ft | 432 kts | 30° |
| 2026-05-04 12:05 | -8.05443 | 53.68118 | 36882 ft | 433 kts | 30° |
| 2026-05-04 12:06 | -8.00194 | 53.71018 | 36877 ft | 433 kts | 30° |
| 2026-05-04 12:06 | -7.94899 | 53.73935 | 36877 ft | 434 kts | 30° |
| 2026-05-04 12:07 | -7.89594 | 53.76856 | 36875 ft | 435 kts | 30° |
| 2026-05-04 12:07 | -7.84274 | 53.79780 | 36874 ft | 436 kts | 30° |
| 2026-05-04 12:08 | -7.78943 | 53.82712 | 36874 ft | 436 kts | 30° |
| 2026-05-04 12:08 | -7.73619 | 53.85653 | 36877 ft | 437 kts | 30° |
| 2026-05-04 12:09 | -7.68284 | 53.88595 | 36883 ft | 437 kts | 30° |
| 2026-05-04 12:09 | -7.62942 | 53.91528 | 36876 ft | 437 kts | 30° |
| 2026-05-04 12:10 | -7.57596 | 53.94461 | 36875 ft | 438 kts | 30° |
| 2026-05-04 12:10 | -7.52247 | 53.97398 | 36881 ft | 438 kts | 30° |
| 2026-05-04 12:11 | -7.46906 | 54.00348 | 36881 ft | 438 kts | 30° |
| 2026-05-04 12:11 | -7.41558 | 54.03292 | 36885 ft | 438 kts | 30° |
| 2026-05-04 12:12 | -7.36232 | 54.06203 | 36885 ft | 438 kts | 30° |
| 2026-05-04 12:12 | -7.30874 | 54.09147 | 36888 ft | 439 kts | 30° |
| 2026-05-04 12:14 | -7.09380 | 54.20834 | 36896 ft | 439 kts | 29° |
| 2026-05-04 12:15 | -7.04005 | 54.23749 | 36891 ft | 439 kts | 29° |
| 2026-05-04 12:15 | -6.98629 | 54.26665 | 36890 ft | 439 kts | 29° |
| 2026-05-04 12:16 | -6.93244 | 54.29582 | 36887 ft | 439 kts | 29° |
| 2026-05-04 12:16 | -6.87868 | 54.32488 | 36886 ft | 439 kts | 29° |
| 2026-05-04 12:17 | -6.82491 | 54.35402 | 36881 ft | 439 kts | 29° |
| 2026-05-04 12:17 | -6.77110 | 54.38307 | 36879 ft | 439 kts | 29° |
| 2026-05-04 12:18 | -6.71729 | 54.41218 | 36878 ft | 439 kts | 29° |
| 2026-05-04 12:18 | -6.66349 | 54.44139 | 36880 ft | 439 kts | 29° |
| 2026-05-04 12:19 | -6.61003 | 54.47037 | 36880 ft | 440 kts | 29° |
| 2026-05-04 12:19 | -6.55608 | 54.49951 | 36884 ft | 440 kts | 29° |
| 2026-05-04 12:20 | -6.50210 | 54.52863 | 36888 ft | 440 kts | 29° |
| 2026-05-04 12:20 | -6.44812 | 54.55777 | 36895 ft | 440 kts | 29° |
| 2026-05-04 12:21 | -6.39418 | 54.58694 | 36898 ft | 440 kts | 29° |
| 2026-05-04 12:21 | -6.34027 | 54.61607 | 36887 ft | 440 kts | 29° |
| 2026-05-04 12:22 | -6.28623 | 54.64520 | 36886 ft | 440 kts | 29° |
| 2026-05-04 12:22 | -6.23223 | 54.67432 | 36891 ft | 440 kts | 29° |
| 2026-05-04 12:23 | -6.17831 | 54.70348 | 36887 ft | 440 kts | 29° |
| 2026-05-04 12:23 | -6.12405 | 54.73279 | 36865 ft | 444 kts | 29° |
| 2026-05-04 12:24 | -6.06958 | 54.76214 | 36873 ft | 444 kts | 29° |
| 2026-05-04 12:24 | -6.01515 | 54.79152 | 36873 ft | 444 kts | 29° |
| 2026-05-04 12:25 | -5.96064 | 54.82090 | 36882 ft | 445 kts | 29° |
| 2026-05-04 12:25 | -5.90618 | 54.85028 | 36887 ft | 444 kts | 29° |
| 2026-05-04 12:26 | -5.85174 | 54.87962 | 36884 ft | 444 kts | 29° |
| 2026-05-04 12:26 | -5.79761 | 54.90874 | 36892 ft | 445 kts | 29° |
| 2026-05-04 12:27 | -5.74312 | 54.93814 | 36895 ft | 444 kts | 29° |
| 2026-05-04 12:27 | -5.68873 | 54.96749 | 36882 ft | 444 kts | 29° |
| 2026-05-04 12:28 | -5.63420 | 54.99686 | 36879 ft | 445 kts | 29° |
| 2026-05-04 12:28 | -5.57964 | 55.02619 | 36884 ft | 445 kts | 29° |
| 2026-05-04 12:29 | -5.52501 | 55.05556 | 36902 ft | 445 kts | 29° |
| 2026-05-04 12:29 | -5.47045 | 55.08493 | 36900 ft | 445 kts | 29° |
| 2026-05-04 12:30 | -5.41582 | 55.11425 | 36885 ft | 445 kts | 29° |
| 2026-05-04 12:30 | -5.36117 | 55.14360 | 36881 ft | 446 kts | 29° |
| 2026-05-04 12:31 | -5.33396 | 55.15826 | 36333 ft | 443 kts | 29° |
| 2026-05-04 12:31 | -5.30664 | 55.17297 | 35066 ft | 447 kts | 29° |
| 2026-05-04 12:31 | -5.27954 | 55.18756 | 33874 ft | 450 kts | 29° |
| 2026-05-04 12:31 | -5.25165 | 55.20261 | 32716 ft | 448 kts | 28° |
| 2026-05-04 12:32 | -5.22473 | 55.21714 | 31721 ft | 443 kts | 28° |
| 2026-05-04 12:32 | -5.17110 | 55.24596 | 29896 ft | 431 kts | 28° |
| 2026-05-04 12:32 | -5.14482 | 55.26005 | 28882 ft | 425 kts | 28° |
| 2026-05-04 12:33 | -5.11833 | 55.27268 | 27936 ft | 419 kts | 18° |
| 2026-05-04 12:33 | -5.09002 | 55.27811 | 27029 ft | 412 kts | 3° |
| 2026-05-04 12:33 | -5.06147 | 55.27941 | 26116 ft | 408 kts | 2° |
| 2026-05-04 12:33 | -5.03329 | 55.28052 | 25261 ft | 403 kts | 2° |
| 2026-05-04 12:34 | -5.00546 | 55.28156 | 24444 ft | 398 kts | 2° |
| 2026-05-04 12:34 | -4.97793 | 55.28258 | 23646 ft | 394 kts | 1° |
| 2026-05-04 12:34 | -4.95069 | 55.28359 | 22735 ft | 390 kts | 1° |
| 2026-05-04 12:34 | -4.92374 | 55.28456 | 21865 ft | 385 kts | 1° |
| 2026-05-04 12:35 | -4.89718 | 55.28551 | 21037 ft | 380 kts | 1° |
| 2026-05-04 12:35 | -4.87094 | 55.28647 | 20228 ft | 375 kts | 1° |
| 2026-05-04 12:35 | -4.84503 | 55.28745 | 19448 ft | 370 kts | 1° |
| 2026-05-04 12:35 | -4.81946 | 55.28844 | 18697 ft | 366 kts | 1° |
| 2026-05-04 12:36 | -4.79483 | 55.28941 | 18315 ft | 351 kts | 2° |
| 2026-05-04 12:36 | -4.77078 | 55.29038 | 17735 ft | 342 kts | 1° |
| 2026-05-04 12:36 | -4.74721 | 55.29133 | 17065 ft | 337 kts | 1° |
| 2026-05-04 12:36 | -4.72397 | 55.29225 | 16384 ft | 333 kts | 1° |
| 2026-05-04 12:37 | -4.70093 | 55.29316 | 15727 ft | 329 kts | 1° |
| 2026-05-04 12:37 | -4.67820 | 55.29404 | 15094 ft | 325 kts | 1° |
| 2026-05-04 12:37 | -4.65575 | 55.29491 | 14479 ft | 321 kts | 0° |
| 2026-05-04 12:37 | -4.63353 | 55.29573 | 13875 ft | 318 kts | 0° |
| 2026-05-04 12:38 | -4.61158 | 55.29655 | 13332 ft | 311 kts | 0° |
| 2026-05-04 12:38 | -4.59019 | 55.29735 | 12679 ft | 308 kts | 0° |
| 2026-05-04 12:38 | -4.56870 | 55.29816 | 11873 ft | 310 kts | 0° |
| 2026-05-04 12:38 | -4.54709 | 55.29899 | 11086 ft | 312 kts | 0° |
| 2026-05-04 12:39 | -4.52561 | 55.30188 | 10311 ft | 314 kts | 17° |
| 2026-05-04 12:39 | -4.50649 | 55.31233 | 9526 ft | 316 kts | 40° |
| 2026-05-04 12:39 | -4.49279 | 55.32936 | 8690 ft | 316 kts | 63° |
| 2026-05-04 12:39 | -4.48672 | 55.35035 | 7873 ft | 314 kts | 86° |
| 2026-05-04 12:40 | -4.48904 | 55.37163 | 7091 ft | 311 kts | 109° |
| 2026-05-04 12:40 | -4.49921 | 55.39047 | 6327 ft | 307 kts | 131° |
| 2026-05-04 12:40 | -4.51542 | 55.40376 | 5704 ft | 296 kts | 154° |
| 2026-05-04 12:40 | -4.53405 | 55.40988 | 5533 ft | 269 kts | 173° |
| 2026-05-04 12:41 | -4.55179 | 55.41097 | 5505 ft | 241 kts | 180° |
| 2026-05-04 12:41 | -4.56772 | 55.41076 | 5509 ft | 225 kts | 183° |
| 2026-05-04 12:41 | -4.58355 | 55.41011 | 5510 ft | 228 kts | 184° |
| 2026-05-04 12:41 | -4.59939 | 55.40939 | 5508 ft | 228 kts | 184° |
| 2026-05-04 12:42 | -4.61527 | 55.40867 | 5515 ft | 228 kts | 183° |
| 2026-05-04 12:42 | -4.63109 | 55.40796 | 5510 ft | 228 kts | 186° |
| 2026-05-04 12:42 | -4.64657 | 55.40486 | 5512 ft | 227 kts | 200° |
| 2026-05-04 12:42 | -4.66041 | 55.39797 | 5526 ft | 215 kts | 216° |
| 2026-05-04 12:43 | -4.67098 | 55.38852 | 5517 ft | 194 kts | 230° |
| 2026-05-04 12:43 | -4.67810 | 55.37799 | 5500 ft | 172 kts | 243° |
| 2026-05-04 12:43 | -4.68224 | 55.36755 | 5496 ft | 152 kts | 255° |
| 2026-05-04 12:43 | -4.68415 | 55.35727 | 5508 ft | 151 kts | 265° |
| 2026-05-04 12:44 | -4.68412 | 55.34677 | 5512 ft | 151 kts | 276° |
| 2026-05-04 12:44 | -4.68215 | 55.33652 | 5514 ft | 150 kts | 286° |
| 2026-05-04 12:44 | -4.67832 | 55.32679 | 5513 ft | 150 kts | 297° |
| 2026-05-04 12:44 | -4.67274 | 55.31794 | 5519 ft | 151 kts | 307° |
| 2026-05-04 12:45 | -4.66565 | 55.31033 | 5536 ft | 149 kts | 317° |
| 2026-05-04 12:45 | -4.65733 | 55.30420 | 5525 ft | 149 kts | 328° |
| 2026-05-04 12:45 | -4.64795 | 55.29970 | 5517 ft | 150 kts | 339° |
| 2026-05-04 12:45 | -4.63787 | 55.29701 | 5522 ft | 151 kts | 349° |
| 2026-05-04 12:46 | -4.62743 | 55.29630 | 5524 ft | 151 kts | 359° |
| 2026-05-04 12:46 | -4.61690 | 55.29654 | 5522 ft | 151 kts | 0° |
| 2026-05-04 12:46 | -4.60651 | 55.29689 | 5520 ft | 151 kts | 1° |
| 2026-05-04 12:46 | -4.59600 | 55.29726 | 5517 ft | 151 kts | 1° |
| 2026-05-04 12:47 | -4.58549 | 55.29764 | 5522 ft | 151 kts | 1° |
| 2026-05-04 12:47 | -4.57498 | 55.29802 | 5522 ft | 151 kts | 1° |
| 2026-05-04 12:47 | -4.56447 | 55.29839 | 5524 ft | 151 kts | 0° |
| 2026-05-04 12:47 | -4.55396 | 55.29897 | 5489 ft | 152 kts | 9° |
| 2026-05-04 12:48 | -4.54537 | 55.30465 | 5363 ft | 153 kts | 58° |
| 2026-05-04 12:48 | -4.54363 | 55.31487 | 5259 ft | 153 kts | 106° |
| 2026-05-04 12:48 | -4.54663 | 55.32509 | 5107 ft | 153 kts | 104° |
| 2026-05-04 12:48 | -4.54882 | 55.33551 | 4920 ft | 152 kts | 102° |
| 2026-05-04 12:49 | -4.55084 | 55.34590 | 4715 ft | 152 kts | 102° |
| 2026-05-04 12:49 | -4.55286 | 55.35625 | 4505 ft | 151 kts | 102° |
| 2026-05-04 12:49 | -4.55491 | 55.36654 | 4295 ft | 151 kts | 102° |
| 2026-05-04 12:49 | -4.55699 | 55.37681 | 4086 ft | 150 kts | 102° |
| 2026-05-04 12:50 | -4.55906 | 55.38703 | 3880 ft | 149 kts | 102° |
| 2026-05-04 12:50 | -4.56113 | 55.39721 | 3674 ft | 149 kts | 102° |
| 2026-05-04 12:50 | -4.56321 | 55.40733 | 3467 ft | 148 kts | 102° |
| 2026-05-04 12:50 | -4.56530 | 55.41745 | 3264 ft | 147 kts | 102° |
| 2026-05-04 12:51 | -4.56738 | 55.42746 | 3063 ft | 147 kts | 103° |
| 2026-05-04 12:51 | -4.56945 | 55.43733 | 2855 ft | 146 kts | 103° |
| 2026-05-04 12:51 | -4.57153 | 55.44726 | 2653 ft | 145 kts | 103° |
| 2026-05-04 12:51 | -4.57516 | 55.45656 | 2447 ft | 143 kts | 129° |
| 2026-05-04 12:52 | -4.58345 | 55.46116 | 2266 ft | 141 kts | 170° |
| 2026-05-04 12:52 | -4.59264 | 55.46439 | 2061 ft | 140 kts | 153° |
| 2026-05-04 12:52 | -4.60146 | 55.46855 | 1873 ft | 140 kts | 156° |
| 2026-05-04 12:52 | -4.61026 | 55.47265 | 1673 ft | 139 kts | 155° |
| 2026-05-04 12:53 | -4.61902 | 55.47672 | 1483 ft | 139 kts | 156° |
| 2026-05-04 12:53 | -4.62777 | 55.48080 | 1287 ft | 138 kts | 156° |
| 2026-05-04 12:53 | -4.63377 | 55.48322 | 1029 ft | 145 kts | 163° |
| 2026-05-04 12:53 | -4.64660 | 55.48778 | 596 ft | 143 kts | 138° |
| 2026-05-04 12:54 | -4.65100 | 55.49249 | 459 ft | 138 kts | 133° |
| 2026-05-04 12:54 | -4.65727 | 55.49952 | 271 ft | 134 kts | 129° |
| 2026-05-04 12:54 | -4.66334 | 55.50660 | 112 ft | 134 kts | 128° |
| 2026-05-04 12:54 | -4.66860 | 55.51376 | 26 ft | 114 kts | 125° |
| 2026-05-04 12:55 | -4.67160 | 55.51805 | 24 ft | 52 kts | 126° |
| 2026-05-04 12:55 | -4.67330 | 55.52022 | 24 ft | 19 kts | 142° |
| 2026-05-04 12:55 | -4.67331 | 55.52046 | 27 ft | 1 kts | 316° |
| 2026-05-04 12:55 | -4.67310 | 55.52014 | 24 ft | 18 kts | 303° |
| 2026-05-04 12:56 | -4.67193 | 55.51842 | 24 ft | 34 kts | 304° |
| 2026-05-04 12:56 | -4.67057 | 55.51641 | 22 ft | 35 kts | 309° |
| 2026-05-04 12:56 | -4.66932 | 55.51473 | 22 ft | 30 kts | 305° |
| 2026-05-04 12:56 | -4.66972 | 55.51335 | 22 ft | 19 kts | 248° |
| 2026-05-04 12:57 | -4.67011 | 55.51228 | 22 ft | 13 kts | 239° |
| 2026-05-04 12:57 | -4.67053 | 55.51192 | 22 ft | 0 kts | 214° |